sensor_id;sensor_type;location;lat;lon;timestamp;P1;durP1;ratioP1;P2;durP2;ratioP2
67715;SDS011;54508;43.238;25.306;2023-07-30T00:02:01;3.28;;;2.40;;
67715;SDS011;54508;43.238;25.306;2023-07-30T00:04:26;3.67;;;2.83;;
67715;SDS011;54508;43.238;25.306;2023-07-30T00:06:51;2.77;;;2.53;;
67715;SDS011;54508;43.238;25.306;2023-07-30T00:09:17;4.03;;;2.53;;
67715;SDS011;54508;43.238;25.306;2023-07-30T00:11:42;2.78;;;2.30;;
67715;SDS011;54508;43.238;25.306;2023-07-30T00:14:08;2.87;;;2.40;;
67715;SDS011;54508;43.238;25.306;2023-07-30T00:16:33;4.37;;;2.90;;
67715;SDS011;54508;43.238;25.306;2023-07-30T00:18:59;3.80;;;2.43;;
67715;SDS011;54508;43.238;25.306;2023-07-30T00:21:24;2.90;;;2.50;;
67715;SDS011;54508;43.238;25.306;2023-07-30T00:23:49;3.13;;;2.60;;
67715;SDS011;54508;43.238;25.306;2023-07-30T00:26:15;2.87;;;2.53;;
67715;SDS011;54508;43.238;25.306;2023-07-30T00:28:40;3.40;;;2.63;;
67715;SDS011;54508;43.238;25.306;2023-07-30T00:31:06;4.10;;;2.77;;
67715;SDS011;54508;43.238;25.306;2023-07-30T00:33:31;4.07;;;2.70;;
67715;SDS011;54508;43.238;25.306;2023-07-30T00:35:57;3.42;;;2.50;;
67715;SDS011;54508;43.238;25.306;2023-07-30T00:38:22;3.23;;;2.87;;
67715;SDS011;54508;43.238;25.306;2023-07-30T00:40:48;4.18;;;2.70;;
67715;SDS011;54508;43.238;25.306;2023-07-30T00:43:14;3.10;;;2.80;;
67715;SDS011;54508;43.238;25.306;2023-07-30T00:45:40;3.10;;;2.80;;
67715;SDS011;54508;43.238;25.306;2023-07-30T00:48:06;3.40;;;2.90;;
67715;SDS011;54508;43.238;25.306;2023-07-30T00:50:31;3.73;;;2.70;;
67715;SDS011;54508;43.238;25.306;2023-07-30T00:52:58;3.40;;;2.80;;
67715;SDS011;54508;43.238;25.306;2023-07-30T00:55:23;3.10;;;2.80;;
67715;SDS011;54508;43.238;25.306;2023-07-30T00:57:49;5.57;;;2.50;;
67715;SDS011;54508;43.238;25.306;2023-07-30T01:00:15;3.63;;;2.90;;
67715;SDS011;54508;43.238;25.306;2023-07-30T01:02:41;3.57;;;2.43;;
67715;SDS011;54508;43.238;25.306;2023-07-30T01:05:06;3.35;;;2.63;;
67715;SDS011;54508;43.238;25.306;2023-07-30T01:07:32;3.13;;;2.60;;
67715;SDS011;54508;43.238;25.306;2023-07-30T01:09:58;3.30;;;2.70;;
67715;SDS011;54508;43.238;25.306;2023-07-30T01:12:24;5.10;;;2.78;;
67715;SDS011;54508;43.238;25.306;2023-07-30T01:14:50;3.17;;;2.60;;
67715;SDS011;54508;43.238;25.306;2023-07-30T01:17:16;4.20;;;2.58;;
67715;SDS011;54508;43.238;25.306;2023-07-30T01:19:43;3.70;;;2.92;;
67715;SDS011;54508;43.238;25.306;2023-07-30T01:22:08;4.15;;;2.80;;
67715;SDS011;54508;43.238;25.306;2023-07-30T01:24:34;3.77;;;2.47;;
67715;SDS011;54508;43.238;25.306;2023-07-30T01:27:01;4.77;;;3.20;;
67715;SDS011;54508;43.238;25.306;2023-07-30T01:29:42;3.72;;;3.00;;
67715;SDS011;54508;43.238;25.306;2023-07-30T01:32:10;2.90;;;2.70;;
67715;SDS011;54508;43.238;25.306;2023-07-30T01:34:37;3.67;;;2.80;;
67715;SDS011;54508;43.238;25.306;2023-07-30T01:37:04;2.90;;;2.70;;
67715;SDS011;54508;43.238;25.306;2023-07-30T01:39:31;3.30;;;2.53;;
67715;SDS011;54508;43.238;25.306;2023-07-30T01:41:57;4.78;;;2.78;;
67715;SDS011;54508;43.238;25.306;2023-07-30T01:44:22;3.47;;;2.70;;
67715;SDS011;54508;43.238;25.306;2023-07-30T01:46:48;2.95;;;2.33;;
67715;SDS011;54508;43.238;25.306;2023-07-30T01:49:13;3.03;;;2.73;;
67715;SDS011;54508;43.238;25.306;2023-07-30T01:51:39;3.60;;;2.90;;
67715;SDS011;54508;43.238;25.306;2023-07-30T01:54:04;3.47;;;3.13;;
67715;SDS011;54508;43.238;25.306;2023-07-30T01:56:30;3.07;;;2.77;;
67715;SDS011;54508;43.238;25.306;2023-07-30T01:58:55;3.35;;;2.80;;
67715;SDS011;54508;43.238;25.306;2023-07-30T02:01:21;3.23;;;2.93;;
67715;SDS011;54508;43.238;25.306;2023-07-30T02:03:46;3.80;;;2.80;;
67715;SDS011;54508;43.238;25.306;2023-07-30T02:06:11;3.47;;;2.77;;
67715;SDS011;54508;43.238;25.306;2023-07-30T02:08:37;4.60;;;2.92;;
67715;SDS011;54508;43.238;25.306;2023-07-30T02:11:03;4.10;;;2.73;;
67715;SDS011;54508;43.238;25.306;2023-07-30T02:13:28;2.93;;;2.63;;
67715;SDS011;54508;43.238;25.306;2023-07-30T02:15:54;4.32;;;2.53;;
67715;SDS011;54508;43.238;25.306;2023-07-30T02:18:19;2.80;;;2.50;;
67715;SDS011;54508;43.238;25.306;2023-07-30T02:20:45;3.50;;;2.77;;
67715;SDS011;54508;43.238;25.306;2023-07-30T02:23:10;3.60;;;2.27;;
67715;SDS011;54508;43.238;25.306;2023-07-30T02:25:37;3.22;;;2.63;;
67715;SDS011;54508;43.238;25.306;2023-07-30T02:28:02;4.77;;;2.83;;
67715;SDS011;54508;43.238;25.306;2023-07-30T02:30:28;3.88;;;2.72;;
67715;SDS011;54508;43.238;25.306;2023-07-30T02:32:54;3.00;;;2.70;;
67715;SDS011;54508;43.238;25.306;2023-07-30T02:35:19;5.53;;;2.77;;
67715;SDS011;54508;43.238;25.306;2023-07-30T02:37:44;3.92;;;2.80;;
67715;SDS011;54508;43.238;25.306;2023-07-30T02:40:10;3.80;;;2.90;;
67715;SDS011;54508;43.238;25.306;2023-07-30T02:42:36;3.22;;;2.92;;
67715;SDS011;54508;43.238;25.306;2023-07-30T02:45:01;2.97;;;2.57;;
67715;SDS011;54508;43.238;25.306;2023-07-30T02:47:27;2.90;;;2.60;;
67715;SDS011;54508;43.238;25.306;2023-07-30T02:49:52;3.37;;;3.07;;
67715;SDS011;54508;43.238;25.306;2023-07-30T02:52:18;3.00;;;2.70;;
67715;SDS011;54508;43.238;25.306;2023-07-30T02:54:43;2.70;;;2.37;;
67715;SDS011;54508;43.238;25.306;2023-07-30T02:57:09;2.73;;;2.40;;
67715;SDS011;54508;43.238;25.306;2023-07-30T02:59:35;2.90;;;2.60;;
67715;SDS011;54508;43.238;25.306;2023-07-30T03:02:02;3.10;;;2.72;;
67715;SDS011;54508;43.238;25.306;2023-07-30T03:04:30;3.65;;;2.55;;
67715;SDS011;54508;43.238;25.306;2023-07-30T03:06:55;4.67;;;3.30;;
67715;SDS011;54508;43.238;25.306;2023-07-30T03:09:21;4.13;;;3.00;;
67715;SDS011;54508;43.238;25.306;2023-07-30T03:11:47;3.33;;;2.80;;
67715;SDS011;54508;43.238;25.306;2023-07-30T03:14:13;3.13;;;2.80;;
67715;SDS011;54508;43.238;25.306;2023-07-30T03:16:38;4.57;;;3.27;;
67715;SDS011;54508;43.238;25.306;2023-07-30T03:19:03;4.20;;;3.00;;
67715;SDS011;54508;43.238;25.306;2023-07-30T03:21:29;3.10;;;2.63;;
67715;SDS011;54508;43.238;25.306;2023-07-30T03:23:54;3.47;;;2.97;;
67715;SDS011;54508;43.238;25.306;2023-07-30T03:26:20;3.40;;;2.75;;
67715;SDS011;54508;43.238;25.306;2023-07-30T03:28:45;3.17;;;2.50;;
67715;SDS011;54508;43.238;25.306;2023-07-30T03:31:10;5.67;;;2.87;;
67715;SDS011;54508;43.238;25.306;2023-07-30T03:33:36;4.90;;;2.60;;
67715;SDS011;54508;43.238;25.306;2023-07-30T03:36:04;3.03;;;2.72;;
67715;SDS011;54508;43.238;25.306;2023-07-30T03:38:29;3.50;;;2.83;;
67715;SDS011;54508;43.238;25.306;2023-07-30T03:40:55;3.55;;;2.63;;
67715;SDS011;54508;43.238;25.306;2023-07-30T03:43:20;3.10;;;2.70;;
67715;SDS011;54508;43.238;25.306;2023-07-30T03:45:46;3.07;;;2.50;;
67715;SDS011;54508;43.238;25.306;2023-07-30T03:48:11;2.70;;;2.50;;
67715;SDS011;54508;43.238;25.306;2023-07-30T03:50:39;2.83;;;2.50;;
67715;SDS011;54508;43.238;25.306;2023-07-30T03:53:14;3.60;;;2.50;;
67715;SDS011;54508;43.238;25.306;2023-07-30T03:55:50;2.75;;;2.53;;
67715;SDS011;54508;43.238;25.306;2023-07-30T03:58:18;3.17;;;2.53;;
67715;SDS011;54508;43.238;25.306;2023-07-30T04:00:44;3.08;;;2.60;;
67715;SDS011;54508;43.238;25.306;2023-07-30T04:03:14;3.67;;;2.70;;
67715;SDS011;54508;43.238;25.306;2023-07-30T04:05:40;4.63;;;2.92;;
67715;SDS011;54508;43.238;25.306;2023-07-30T04:08:05;4.20;;;2.67;;
67715;SDS011;54508;43.238;25.306;2023-07-30T04:10:31;3.00;;;2.40;;
67715;SDS011;54508;43.238;25.306;2023-07-30T04:12:56;3.47;;;2.90;;
67715;SDS011;54508;43.238;25.306;2023-07-30T04:15:21;3.10;;;2.80;;
67715;SDS011;54508;43.238;25.306;2023-07-30T04:17:52;3.25;;;2.40;;
67715;SDS011;54508;43.238;25.306;2023-07-30T04:20:20;3.47;;;2.77;;
67715;SDS011;54508;43.238;25.306;2023-07-30T04:22:46;3.20;;;2.90;;
67715;SDS011;54508;43.238;25.306;2023-07-30T04:25:11;3.57;;;2.50;;
67715;SDS011;54508;43.238;25.306;2023-07-30T04:27:37;3.23;;;2.70;;
67715;SDS011;54508;43.238;25.306;2023-07-30T04:30:04;4.00;;;2.70;;
67715;SDS011;54508;43.238;25.306;2023-07-30T04:32:30;3.92;;;2.85;;
67715;SDS011;54508;43.238;25.306;2023-07-30T04:34:55;2.90;;;2.35;;
67715;SDS011;54508;43.238;25.306;2023-07-30T04:37:21;2.35;;;2.15;;
67715;SDS011;54508;43.238;25.306;2023-07-30T04:39:47;4.03;;;2.77;;
67715;SDS011;54508;43.238;25.306;2023-07-30T04:42:13;3.38;;;2.85;;
67715;SDS011;54508;43.238;25.306;2023-07-30T04:44:39;3.03;;;2.72;;
67715;SDS011;54508;43.238;25.306;2023-07-30T04:47:05;2.42;;;2.22;;
67715;SDS011;54508;43.238;25.306;2023-07-30T04:49:31;2.80;;;2.50;;
67715;SDS011;54508;43.238;25.306;2023-07-30T04:51:56;3.35;;;2.65;;
67715;SDS011;54508;43.238;25.306;2023-07-30T04:54:22;4.13;;;2.95;;
67715;SDS011;54508;43.238;25.306;2023-07-30T04:56:47;4.50;;;2.83;;
67715;SDS011;54508;43.238;25.306;2023-07-30T04:59:12;3.83;;;2.70;;
67715;SDS011;54508;43.238;25.306;2023-07-30T05:01:38;3.47;;;2.97;;
67715;SDS011;54508;43.238;25.306;2023-07-30T05:04:03;3.15;;;2.70;;
67715;SDS011;54508;43.238;25.306;2023-07-30T05:06:29;3.35;;;2.47;;
67715;SDS011;54508;43.238;25.306;2023-07-30T05:08:54;2.67;;;2.40;;
67715;SDS011;54508;43.238;25.306;2023-07-30T05:11:20;3.87;;;2.50;;
67715;SDS011;54508;43.238;25.306;2023-07-30T05:13:45;3.15;;;2.33;;
67715;SDS011;54508;43.238;25.306;2023-07-30T05:16:11;2.58;;;2.38;;
67715;SDS011;54508;43.238;25.306;2023-07-30T05:18:36;3.13;;;2.80;;
67715;SDS011;54508;43.238;25.306;2023-07-30T05:21:01;4.70;;;2.50;;
67715;SDS011;54508;43.238;25.306;2023-07-30T05:23:27;3.63;;;2.60;;
67715;SDS011;54508;43.238;25.306;2023-07-30T05:25:52;2.58;;;2.30;;
67715;SDS011;54508;43.238;25.306;2023-07-30T05:28:18;4.47;;;2.53;;
67715;SDS011;54508;43.238;25.306;2023-07-30T05:30:43;3.13;;;2.70;;
67715;SDS011;54508;43.238;25.306;2023-07-30T05:33:09;3.10;;;2.80;;
67715;SDS011;54508;43.238;25.306;2023-07-30T05:35:34;3.72;;;2.75;;
67715;SDS011;54508;43.238;25.306;2023-07-30T05:37:59;3.35;;;2.55;;
67715;SDS011;54508;43.238;25.306;2023-07-30T05:40:25;2.57;;;2.27;;
67715;SDS011;54508;43.238;25.306;2023-07-30T05:42:51;2.97;;;2.67;;
67715;SDS011;54508;43.238;25.306;2023-07-30T05:45:16;2.97;;;2.40;;
67715;SDS011;54508;43.238;25.306;2023-07-30T05:47:41;2.90;;;2.43;;
67715;SDS011;54508;43.238;25.306;2023-07-30T05:50:07;3.23;;;2.67;;
67715;SDS011;54508;43.238;25.306;2023-07-30T05:52:33;2.70;;;2.38;;
67715;SDS011;54508;43.238;25.306;2023-07-30T05:54:59;5.30;;;2.90;;
67715;SDS011;54508;43.238;25.306;2023-07-30T05:57:24;3.28;;;2.60;;
67715;SDS011;54508;43.238;25.306;2023-07-30T05:59:50;3.93;;;2.70;;
67715;SDS011;54508;43.238;25.306;2023-07-30T06:02:15;4.17;;;2.53;;
67715;SDS011;54508;43.238;25.306;2023-07-30T06:04:41;2.78;;;2.50;;
67715;SDS011;54508;43.238;25.306;2023-07-30T06:07:07;3.43;;;2.77;;
67715;SDS011;54508;43.238;25.306;2023-07-30T06:09:32;4.03;;;2.80;;
67715;SDS011;54508;43.238;25.306;2023-07-30T06:11:58;3.50;;;2.47;;
67715;SDS011;54508;43.238;25.306;2023-07-30T06:14:24;3.43;;;2.67;;
67715;SDS011;54508;43.238;25.306;2023-07-30T06:16:49;3.08;;;2.38;;
67715;SDS011;54508;43.238;25.306;2023-07-30T06:19:15;3.83;;;2.78;;
67715;SDS011;54508;43.238;25.306;2023-07-30T06:21:41;3.30;;;2.50;;
67715;SDS011;54508;43.238;25.306;2023-07-30T06:24:07;2.88;;;2.67;;
67715;SDS011;54508;43.238;25.306;2023-07-30T06:26:32;4.18;;;2.72;;
67715;SDS011;54508;43.238;25.306;2023-07-30T06:28:58;3.10;;;2.50;;
67715;SDS011;54508;43.238;25.306;2023-07-30T06:31:23;3.03;;;2.67;;
67715;SDS011;54508;43.238;25.306;2023-07-30T06:33:49;2.47;;;2.28;;
67715;SDS011;54508;43.238;25.306;2023-07-30T06:36:14;2.77;;;2.20;;
67715;SDS011;54508;43.238;25.306;2023-07-30T06:38:40;3.33;;;2.47;;
67715;SDS011;54508;43.238;25.306;2023-07-30T06:41:05;3.00;;;2.60;;
67715;SDS011;54508;43.238;25.306;2023-07-30T06:43:34;3.40;;;3.00;;
67715;SDS011;54508;43.238;25.306;2023-07-30T06:46:05;2.50;;;2.30;;
67715;SDS011;54508;43.238;25.306;2023-07-30T06:48:30;2.63;;;2.33;;
67715;SDS011;54508;43.238;25.306;2023-07-30T06:50:56;2.90;;;2.70;;
67715;SDS011;54508;43.238;25.306;2023-07-30T06:53:22;3.88;;;2.83;;
67715;SDS011;54508;43.238;25.306;2023-07-30T06:55:47;3.07;;;2.40;;
67715;SDS011;54508;43.238;25.306;2023-07-30T06:58:13;4.03;;;2.87;;
67715;SDS011;54508;43.238;25.306;2023-07-30T07:00:39;3.08;;;2.47;;
67715;SDS011;54508;43.238;25.306;2023-07-30T07:03:05;2.78;;;2.47;;
67715;SDS011;54508;43.238;25.306;2023-07-30T07:05:31;3.13;;;2.67;;
67715;SDS011;54508;43.238;25.306;2023-07-30T07:07:56;2.90;;;2.47;;
67715;SDS011;54508;43.238;25.306;2023-07-30T07:10:22;2.78;;;2.22;;
67715;SDS011;54508;43.238;25.306;2023-07-30T07:12:53;2.40;;;2.10;;
67715;SDS011;54508;43.238;25.306;2023-07-30T07:15:19;3.22;;;2.30;;
67715;SDS011;54508;43.238;25.306;2023-07-30T07:17:44;2.30;;;2.10;;
67715;SDS011;54508;43.238;25.306;2023-07-30T07:20:10;2.70;;;2.50;;
67715;SDS011;54508;43.238;25.306;2023-07-30T07:22:36;2.55;;;2.35;;
67715;SDS011;54508;43.238;25.306;2023-07-30T07:25:02;3.00;;;2.60;;
67715;SDS011;54508;43.238;25.306;2023-07-30T07:27:27;2.45;;;2.25;;
67715;SDS011;54508;43.238;25.306;2023-07-30T07:29:53;2.80;;;2.50;;
67715;SDS011;54508;43.238;25.306;2023-07-30T07:32:19;3.53;;;2.33;;
67715;SDS011;54508;43.238;25.306;2023-07-30T07:34:45;2.80;;;2.50;;
67715;SDS011;54508;43.238;25.306;2023-07-30T07:37:14;3.45;;;2.53;;
67715;SDS011;54508;43.238;25.306;2023-07-30T07:39:41;3.15;;;2.58;;
67715;SDS011;54508;43.238;25.306;2023-07-30T07:42:07;3.37;;;2.67;;
67715;SDS011;54508;43.238;25.306;2023-07-30T07:44:45;2.67;;;2.42;;
67715;SDS011;54508;43.238;25.306;2023-07-30T07:47:11;2.95;;;2.60;;
67715;SDS011;54508;43.238;25.306;2023-07-30T07:49:36;2.63;;;2.33;;
67715;SDS011;54508;43.238;25.306;2023-07-30T07:52:02;3.00;;;2.70;;
67715;SDS011;54508;43.238;25.306;2023-07-30T07:54:27;2.40;;;1.97;;
67715;SDS011;54508;43.238;25.306;2023-07-30T07:56:53;3.40;;;2.53;;
67715;SDS011;54508;43.238;25.306;2023-07-30T07:59:18;3.37;;;2.50;;
67715;SDS011;54508;43.238;25.306;2023-07-30T08:01:44;2.78;;;2.30;;
67715;SDS011;54508;43.238;25.306;2023-07-30T08:04:12;2.63;;;2.43;;
67715;SDS011;54508;43.238;25.306;2023-07-30T08:06:38;3.17;;;2.35;;
67715;SDS011;54508;43.238;25.306;2023-07-30T08:09:03;2.73;;;2.27;;
67715;SDS011;54508;43.238;25.306;2023-07-30T08:11:28;2.93;;;2.30;;
67715;SDS011;54508;43.238;25.306;2023-07-30T08:13:54;2.60;;;2.13;;
67715;SDS011;54508;43.238;25.306;2023-07-30T08:16:19;2.80;;;2.50;;
67715;SDS011;54508;43.238;25.306;2023-07-30T08:18:45;2.42;;;1.95;;
67715;SDS011;54508;43.238;25.306;2023-07-30T08:21:10;2.50;;;2.20;;
67715;SDS011;54508;43.238;25.306;2023-07-30T08:23:36;3.30;;;2.80;;
67715;SDS011;54508;43.238;25.306;2023-07-30T08:26:01;3.53;;;2.40;;
67715;SDS011;54508;43.238;25.306;2023-07-30T08:28:26;2.53;;;2.22;;
67715;SDS011;54508;43.238;25.306;2023-07-30T08:30:52;2.60;;;2.20;;
67715;SDS011;54508;43.238;25.306;2023-07-30T08:33:20;3.03;;;2.47;;
67715;SDS011;54508;43.238;25.306;2023-07-30T08:35:45;3.00;;;2.42;;
67715;SDS011;54508;43.238;25.306;2023-07-30T08:38:11;2.77;;;2.23;;
67715;SDS011;54508;43.238;25.306;2023-07-30T08:40:36;2.43;;;2.23;;
67715;SDS011;54508;43.238;25.306;2023-07-30T08:43:02;3.07;;;2.17;;
67715;SDS011;54508;43.238;25.306;2023-07-30T08:45:28;2.65;;;2.45;;
67715;SDS011;54508;43.238;25.306;2023-07-30T08:47:54;3.20;;;2.50;;
67715;SDS011;54508;43.238;25.306;2023-07-30T08:50:19;3.10;;;2.20;;
67715;SDS011;54508;43.238;25.306;2023-07-30T08:52:45;2.85;;;2.38;;
67715;SDS011;54508;43.238;25.306;2023-07-30T08:55:12;2.20;;;2.00;;
67715;SDS011;54508;43.238;25.306;2023-07-30T08:57:37;2.73;;;2.20;;
67715;SDS011;54508;43.238;25.306;2023-07-30T09:00:08;2.65;;;2.20;;
67715;SDS011;54508;43.238;25.306;2023-07-30T09:02:37;2.47;;;2.20;;
67715;SDS011;54508;43.238;25.306;2023-07-30T09:05:23;2.65;;;2.30;;
67715;SDS011;54508;43.238;25.306;2023-07-30T09:07:49;2.22;;;2.03;;
67715;SDS011;54508;43.238;25.306;2023-07-30T09:10:15;2.40;;;2.00;;
67715;SDS011;54508;43.238;25.306;2023-07-30T09:12:43;2.90;;;2.30;;
67715;SDS011;54508;43.238;25.306;2023-07-30T09:15:11;2.60;;;2.00;;
67715;SDS011;54508;43.238;25.306;2023-07-30T09:17:37;2.83;;;2.20;;
67715;SDS011;54508;43.238;25.306;2023-07-30T09:20:03;2.85;;;2.30;;
67715;SDS011;54508;43.238;25.306;2023-07-30T09:22:29;2.75;;;2.38;;
67715;SDS011;54508;43.238;25.306;2023-07-30T09:25:01;3.73;;;2.53;;
67715;SDS011;54508;43.238;25.306;2023-07-30T09:27:27;2.35;;;1.92;;
67715;SDS011;54508;43.238;25.306;2023-07-30T09:29:54;2.78;;;2.28;;
67715;SDS011;54508;43.238;25.306;2023-07-30T09:32:25;2.92;;;2.25;;
67715;SDS011;54508;43.238;25.306;2023-07-30T09:37:33;2.37;;;2.10;;
67715;SDS011;54508;43.238;25.306;2023-07-30T09:40:02;3.30;;;1.95;;
67715;SDS011;54508;43.238;25.306;2023-07-30T09:42:28;2.53;;;2.33;;
67715;SDS011;54508;43.238;25.306;2023-07-30T09:44:58;2.42;;;2.00;;
67715;SDS011;54508;43.238;25.306;2023-07-30T09:47:25;2.92;;;2.10;;
67715;SDS011;54508;43.238;25.306;2023-07-30T09:49:51;2.50;;;2.23;;
67715;SDS011;54508;43.238;25.306;2023-07-30T09:52:17;2.33;;;1.70;;
67715;SDS011;54508;43.238;25.306;2023-07-30T09:54:42;2.50;;;2.23;;
67715;SDS011;54508;43.238;25.306;2023-07-30T09:57:25;2.40;;;2.20;;
67715;SDS011;54508;43.238;25.306;2023-07-30T09:59:54;2.50;;;2.08;;
67715;SDS011;54508;43.238;25.306;2023-07-30T10:02:19;2.28;;;1.90;;
67715;SDS011;54508;43.238;25.306;2023-07-30T10:04:46;2.77;;;2.17;;
67715;SDS011;54508;43.238;25.306;2023-07-30T10:07:17;2.97;;;2.03;;
67715;SDS011;54508;43.238;25.306;2023-07-30T10:09:45;2.20;;;2.00;;
67715;SDS011;54508;43.238;25.306;2023-07-30T10:12:20;2.50;;;2.10;;
67715;SDS011;54508;43.238;25.306;2023-07-30T10:14:47;2.78;;;2.33;;
67715;SDS011;54508;43.238;25.306;2023-07-30T10:17:13;2.20;;;2.00;;
67715;SDS011;54508;43.238;25.306;2023-07-30T10:19:38;2.25;;;1.90;;
67715;SDS011;54508;43.238;25.306;2023-07-30T10:24:39;1.85;;;1.70;;
67715;SDS011;54508;43.238;25.306;2023-07-30T10:27:08;2.08;;;1.88;;
67715;SDS011;54508;43.238;25.306;2023-07-30T10:29:38;2.87;;;2.37;;
67715;SDS011;54508;43.238;25.306;2023-07-30T10:32:06;2.10;;;1.80;;
67715;SDS011;54508;43.238;25.306;2023-07-30T10:34:50;2.10;;;1.83;;
67715;SDS011;54508;43.238;25.306;2023-07-30T10:37:20;2.70;;;2.00;;
67715;SDS011;54508;43.238;25.306;2023-07-30T10:39:49;3.22;;;2.20;;
67715;SDS011;54508;43.238;25.306;2023-07-30T10:42:14;2.87;;;2.10;;
67715;SDS011;54508;43.238;25.306;2023-07-30T10:44:43;2.35;;;2.15;;
67715;SDS011;54508;43.238;25.306;2023-07-30T10:47:09;2.47;;;1.90;;
67715;SDS011;54508;43.238;25.306;2023-07-30T10:49:40;2.40;;;1.65;;
67715;SDS011;54508;43.238;25.306;2023-07-30T10:52:08;2.10;;;1.90;;
67715;SDS011;54508;43.238;25.306;2023-07-30T10:54:34;2.10;;;1.77;;
67715;SDS011;54508;43.238;25.306;2023-07-30T10:57:00;2.10;;;1.90;;
67715;SDS011;54508;43.238;25.306;2023-07-30T10:59:25;2.47;;;2.10;;
67715;SDS011;54508;43.238;25.306;2023-07-30T11:01:52;3.37;;;2.60;;
67715;SDS011;54508;43.238;25.306;2023-07-30T11:04:18;2.72;;;2.10;;
67715;SDS011;54508;43.238;25.306;2023-07-30T11:06:48;2.33;;;2.05;;
67715;SDS011;54508;43.238;25.306;2023-07-30T11:09:18;2.45;;;2.00;;
67715;SDS011;54508;43.238;25.306;2023-07-30T11:11:45;2.05;;;1.85;;
67715;SDS011;54508;43.238;25.306;2023-07-30T11:14:14;2.07;;;1.57;;
67715;SDS011;54508;43.238;25.306;2023-07-30T11:16:46;2.00;;;1.80;;
67715;SDS011;54508;43.238;25.306;2023-07-30T11:19:16;2.42;;;2.00;;
67715;SDS011;54508;43.238;25.306;2023-07-30T11:21:45;2.50;;;1.90;;
67715;SDS011;54508;43.238;25.306;2023-07-30T11:24:11;2.22;;;1.83;;
67715;SDS011;54508;43.238;25.306;2023-07-30T11:26:37;2.35;;;1.60;;
67715;SDS011;54508;43.238;25.306;2023-07-30T11:29:13;2.17;;;1.98;;
67715;SDS011;54508;43.238;25.306;2023-07-30T11:31:43;2.45;;;2.15;;
67715;SDS011;54508;43.238;25.306;2023-07-30T11:34:09;2.35;;;2.00;;
67715;SDS011;54508;43.238;25.306;2023-07-30T11:36:35;2.83;;;2.10;;
67715;SDS011;54508;43.238;25.306;2023-07-30T11:39:01;2.13;;;1.87;;
67715;SDS011;54508;43.238;25.306;2023-07-30T11:41:26;2.33;;;1.65;;
67715;SDS011;54508;43.238;25.306;2023-07-30T11:43:55;2.17;;;1.98;;
67715;SDS011;54508;43.238;25.306;2023-07-30T11:46:52;2.17;;;1.98;;
67715;SDS011;54508;43.238;25.306;2023-07-30T11:49:19;2.72;;;2.13;;
67715;SDS011;54508;43.238;25.306;2023-07-30T11:51:46;1.98;;;1.77;;
67715;SDS011;54508;43.238;25.306;2023-07-30T11:54:22;3.45;;;2.15;;
67715;SDS011;54508;43.238;25.306;2023-07-30T11:56:53;2.20;;;2.00;;
67715;SDS011;54508;43.238;25.306;2023-07-30T11:59:28;2.45;;;1.88;;
67715;SDS011;54508;43.238;25.306;2023-07-30T12:01:55;2.13;;;1.92;;
67715;SDS011;54508;43.238;25.306;2023-07-30T12:04:21;2.40;;;2.20;;
67715;SDS011;54508;43.238;25.306;2023-07-30T12:06:49;1.92;;;1.65;;
67715;SDS011;54508;43.238;25.306;2023-07-30T12:09:20;2.13;;;1.92;;
67715;SDS011;54508;43.238;25.306;2023-07-30T12:11:48;1.80;;;1.70;;
67715;SDS011;54508;43.238;25.306;2023-07-30T12:14:19;2.30;;;1.70;;
67715;SDS011;54508;43.238;25.306;2023-07-30T12:16:56;1.87;;;1.70;;
67715;SDS011;54508;43.238;25.306;2023-07-30T12:19:22;2.05;;;1.75;;
67715;SDS011;54508;43.238;25.306;2023-07-30T12:21:48;2.00;;;1.80;;
67715;SDS011;54508;43.238;25.306;2023-07-30T12:24:13;2.42;;;2.03;;
67715;SDS011;54508;43.238;25.306;2023-07-30T12:26:39;2.27;;;1.90;;
67715;SDS011;54508;43.238;25.306;2023-07-30T12:29:04;1.70;;;1.57;;
67715;SDS011;54508;43.238;25.306;2023-07-30T12:31:29;2.40;;;1.77;;
67715;SDS011;54508;43.238;25.306;2023-07-30T12:33:55;1.98;;;1.60;;
67715;SDS011;54508;43.238;25.306;2023-07-30T12:36:20;2.03;;;1.63;;
67715;SDS011;54508;43.238;25.306;2023-07-30T12:38:46;1.90;;;1.60;;
67715;SDS011;54508;43.238;25.306;2023-07-30T12:41:11;2.50;;;1.80;;
67715;SDS011;54508;43.238;25.306;2023-07-30T12:43:37;2.37;;;2.00;;
67715;SDS011;54508;43.238;25.306;2023-07-30T12:46:02;1.70;;;1.60;;
67715;SDS011;54508;43.238;25.306;2023-07-30T12:48:28;1.80;;;1.70;;
67715;SDS011;54508;43.238;25.306;2023-07-30T12:50:53;2.07;;;1.87;;
67715;SDS011;54508;43.238;25.306;2023-07-30T12:53:19;2.00;;;1.70;;
67715;SDS011;54508;43.238;25.306;2023-07-30T12:55:45;2.20;;;1.63;;
67715;SDS011;54508;43.238;25.306;2023-07-30T12:58:10;2.27;;;1.70;;
67715;SDS011;54508;43.238;25.306;2023-07-30T13:00:36;2.35;;;1.90;;
67715;SDS011;54508;43.238;25.306;2023-07-30T13:03:01;2.43;;;2.13;;
67715;SDS011;54508;43.238;25.306;2023-07-30T13:05:27;2.43;;;2.10;;
67715;SDS011;54508;43.238;25.306;2023-07-30T13:07:52;2.40;;;1.98;;
67715;SDS011;54508;43.238;25.306;2023-07-30T13:10:18;2.03;;;1.70;;
67715;SDS011;54508;43.238;25.306;2023-07-30T13:12:43;2.47;;;1.90;;
67715;SDS011;54508;43.238;25.306;2023-07-30T13:15:09;1.97;;;1.77;;
67715;SDS011;54508;43.238;25.306;2023-07-30T13:17:34;2.28;;;1.73;;
67715;SDS011;54508;43.238;25.306;2023-07-30T13:20:00;2.23;;;2.03;;
67715;SDS011;54508;43.238;25.306;2023-07-30T13:22:25;2.30;;;1.80;;
67715;SDS011;54508;43.238;25.306;2023-07-30T13:24:51;2.30;;;1.63;;
67715;SDS011;54508;43.238;25.306;2023-07-30T13:27:17;2.00;;;1.80;;
67715;SDS011;54508;43.238;25.306;2023-07-30T13:29:43;1.98;;;1.75;;
67715;SDS011;54508;43.238;25.306;2023-07-30T13:32:09;2.38;;;1.70;;
67715;SDS011;54508;43.238;25.306;2023-07-30T13:34:34;2.80;;;2.03;;
67715;SDS011;54508;43.238;25.306;2023-07-30T13:37:00;2.10;;;1.77;;
67715;SDS011;54508;43.238;25.306;2023-07-30T13:39:26;2.25;;;1.80;;
67715;SDS011;54508;43.238;25.306;2023-07-30T13:41:52;2.07;;;1.87;;
67715;SDS011;54508;43.238;25.306;2023-07-30T13:44:17;2.00;;;1.80;;
67715;SDS011;54508;43.238;25.306;2023-07-30T13:46:43;2.20;;;1.98;;
67715;SDS011;54508;43.238;25.306;2023-07-30T13:49:08;2.33;;;1.87;;
67715;SDS011;54508;43.238;25.306;2023-07-30T13:51:33;2.17;;;1.97;;
67715;SDS011;54508;43.238;25.306;2023-07-30T13:53:59;2.10;;;1.77;;
67715;SDS011;54508;43.238;25.306;2023-07-30T13:56:26;2.28;;;1.80;;
67715;SDS011;54508;43.238;25.306;2023-07-30T13:58:52;2.33;;;2.13;;
67715;SDS011;54508;43.238;25.306;2023-07-30T14:01:17;2.27;;;1.90;;
67715;SDS011;54508;43.238;25.306;2023-07-30T14:03:43;2.20;;;1.87;;
67715;SDS011;54508;43.238;25.306;2023-07-30T14:06:09;2.53;;;2.00;;
67715;SDS011;54508;43.238;25.306;2023-07-30T14:08:35;2.80;;;1.65;;
67715;SDS011;54508;43.238;25.306;2023-07-30T14:11:00;2.53;;;2.30;;
67715;SDS011;54508;43.238;25.306;2023-07-30T14:13:26;2.30;;;1.90;;
67715;SDS011;54508;43.238;25.306;2023-07-30T14:15:51;1.97;;;1.77;;
67715;SDS011;54508;43.238;25.306;2023-07-30T14:18:17;3.35;;;2.00;;
67715;SDS011;54508;43.238;25.306;2023-07-30T14:20:43;2.17;;;1.87;;
67715;SDS011;54508;43.238;25.306;2023-07-30T14:23:08;2.27;;;1.87;;
67715;SDS011;54508;43.238;25.306;2023-07-30T14:25:35;2.40;;;1.88;;
67715;SDS011;54508;43.238;25.306;2023-07-30T14:28:00;1.83;;;1.73;;
67715;SDS011;54508;43.238;25.306;2023-07-30T14:30:26;2.40;;;1.90;;
67715;SDS011;54508;43.238;25.306;2023-07-30T14:32:51;2.00;;;1.90;;
67715;SDS011;54508;43.238;25.306;2023-07-30T14:35:17;1.97;;;1.77;;